sensor_id;sensor_type;location;lat;lon;timestamp;P1;durP1;ratioP1;P2;durP2;ratioP2
9178;SDS011;71287;48.414;11.478;2023-11-22T00:00:57;6.87;;;5.50;;
9178;SDS011;71287;48.414;11.478;2023-11-22T00:03:24;5.70;;;5.10;;
9178;SDS011;71287;48.414;11.478;2023-11-22T00:05:51;6.77;;;6.07;;
9178;SDS011;71287;48.414;11.478;2023-11-22T00:08:17;9.23;;;6.43;;
9178;SDS011;71287;48.414;11.478;2023-11-22T00:10:45;8.37;;;6.10;;
9178;SDS011;71287;48.414;11.478;2023-11-22T00:13:12;8.87;;;5.77;;
9178;SDS011;71287;48.414;11.478;2023-11-22T00:15:39;7.67;;;6.10;;
9178;SDS011;71287;48.414;11.478;2023-11-22T00:18:06;7.33;;;5.80;;
9178;SDS011;71287;48.414;11.478;2023-11-22T00:20:33;8.07;;;6.00;;
9178;SDS011;71287;48.414;11.478;2023-11-22T00:22:59;7.43;;;5.70;;
9178;SDS011;71287;48.414;11.478;2023-11-22T00:25:28;7.50;;;5.60;;
9178;SDS011;71287;48.414;11.478;2023-11-22T00:27:56;7.03;;;5.33;;
9178;SDS011;71287;48.414;11.478;2023-11-22T00:30:23;7.10;;;5.50;;
9178;SDS011;71287;48.414;11.478;2023-11-22T00:32:49;5.87;;;5.07;;
9178;SDS011;71287;48.414;11.478;2023-11-22T00:35:16;4.80;;;4.40;;
9178;SDS011;71287;48.414;11.478;2023-11-22T00:37:43;5.00;;;4.30;;
9178;SDS011;71287;48.414;11.478;2023-11-22T00:40:11;4.53;;;4.10;;
9178;SDS011;71287;48.414;11.478;2023-11-22T00:42:38;3.97;;;3.40;;
9178;SDS011;71287;48.414;11.478;2023-11-22T00:45:09;3.60;;;3.20;;
9178;SDS011;71287;48.414;11.478;2023-11-22T00:47:36;3.73;;;2.77;;
9178;SDS011;71287;48.414;11.478;2023-11-22T00:50:04;2.90;;;2.50;;
9178;SDS011;71287;48.414;11.478;2023-11-22T00:52:32;3.60;;;2.40;;
9178;SDS011;71287;48.414;11.478;2023-11-22T00:54:59;2.00;;;1.83;;
9178;SDS011;71287;48.414;11.478;2023-11-22T00:57:26;1.23;;;0.90;;
9178;SDS011;71287;48.414;11.478;2023-11-22T00:59:55;1.20;;;1.10;;
9178;SDS011;71287;48.414;11.478;2023-11-22T01:02:23;1.20;;;1.10;;
9178;SDS011;71287;48.414;11.478;2023-11-22T01:04:49;0.90;;;0.90;;
9178;SDS011;71287;48.414;11.478;2023-11-22T01:07:16;1.30;;;1.00;;
9178;SDS011;71287;48.414;11.478;2023-11-22T01:09:43;2.73;;;1.40;;
9178;SDS011;71287;48.414;11.478;2023-11-22T01:12:10;3.07;;;1.33;;
9178;SDS011;71287;48.414;11.478;2023-11-22T01:14:37;1.63;;;1.53;;
9178;SDS011;71287;48.414;11.478;2023-11-22T01:17:04;1.30;;;1.20;;
9178;SDS011;71287;48.414;11.478;2023-11-22T01:19:32;1.50;;;1.40;;
9178;SDS011;71287;48.414;11.478;2023-11-22T01:21:59;1.30;;;1.20;;
9178;SDS011;71287;48.414;11.478;2023-11-22T01:24:25;1.30;;;1.20;;
9178;SDS011;71287;48.414;11.478;2023-11-22T01:26:53;1.70;;;1.60;;
9178;SDS011;71287;48.414;11.478;2023-11-22T01:29:20;1.50;;;1.40;;
9178;SDS011;71287;48.414;11.478;2023-11-22T01:31:47;1.27;;;1.20;;
9178;SDS011;71287;48.414;11.478;2023-11-22T01:34:14;1.40;;;1.30;;
9178;SDS011;71287;48.414;11.478;2023-11-22T01:36:43;1.50;;;1.40;;
9178;SDS011;71287;48.414;11.478;2023-11-22T01:39:10;1.43;;;1.33;;
9178;SDS011;71287;48.414;11.478;2023-11-22T01:41:38;2.00;;;1.73;;
9178;SDS011;71287;48.414;11.478;2023-11-22T01:44:07;1.13;;;1.13;;
9178;SDS011;71287;48.414;11.478;2023-11-22T01:46:34;1.53;;;1.43;;
9178;SDS011;71287;48.414;11.478;2023-11-22T01:49:00;1.70;;;1.60;;
9178;SDS011;71287;48.414;11.478;2023-11-22T01:51:27;2.47;;;1.30;;
9178;SDS011;71287;48.414;11.478;2023-11-22T01:53:56;1.87;;;1.37;;
9178;SDS011;71287;48.414;11.478;2023-11-22T01:56:25;1.60;;;1.50;;
9178;SDS011;71287;48.414;11.478;2023-11-22T01:58:53;1.63;;;1.53;;
9178;SDS011;71287;48.414;11.478;2023-11-22T02:01:21;1.80;;;1.70;;
9178;SDS011;71287;48.414;11.478;2023-11-22T02:03:48;1.20;;;1.20;;
9178;SDS011;71287;48.414;11.478;2023-11-22T02:06:17;2.13;;;1.50;;
9178;SDS011;71287;48.414;11.478;2023-11-22T02:08:44;1.60;;;1.50;;
9178;SDS011;71287;48.414;11.478;2023-11-22T02:11:12;1.50;;;1.40;;
9178;SDS011;71287;48.414;11.478;2023-11-22T02:13:39;2.37;;;1.60;;
9178;SDS011;71287;48.414;11.478;2023-11-22T02:16:06;2.47;;;2.27;;
9178;SDS011;71287;48.414;11.478;2023-11-22T02:18:32;1.50;;;1.40;;
9178;SDS011;71287;48.414;11.478;2023-11-22T02:21:02;1.60;;;1.50;;
9178;SDS011;71287;48.414;11.478;2023-11-22T02:23:30;1.90;;;1.80;;
9178;SDS011;71287;48.414;11.478;2023-11-22T02:25:56;1.70;;;1.60;;
9178;SDS011;71287;48.414;11.478;2023-11-22T02:28:23;2.03;;;1.70;;
9178;SDS011;71287;48.414;11.478;2023-11-22T02:30:50;2.87;;;1.90;;
9178;SDS011;71287;48.414;11.478;2023-11-22T02:33:17;2.40;;;2.20;;
9178;SDS011;71287;48.414;11.478;2023-11-22T02:35:45;2.50;;;2.30;;
9178;SDS011;71287;48.414;11.478;2023-11-22T02:38:12;2.53;;;2.33;;
9178;SDS011;71287;48.414;11.478;2023-11-22T02:40:40;2.40;;;2.20;;
9178;SDS011;71287;48.414;11.478;2023-11-22T02:43:07;2.57;;;2.37;;
9178;SDS011;71287;48.414;11.478;2023-11-22T02:45:34;3.53;;;2.50;;
9178;SDS011;71287;48.414;11.478;2023-11-22T02:48:01;2.47;;;2.27;;
9178;SDS011;71287;48.414;11.478;2023-11-22T02:50:28;2.60;;;2.40;;
9178;SDS011;71287;48.414;11.478;2023-11-22T02:52:56;2.73;;;2.53;;
9178;SDS011;71287;48.414;11.478;2023-11-22T02:55:23;2.80;;;2.30;;
9178;SDS011;71287;48.414;11.478;2023-11-22T02:57:51;2.10;;;1.90;;
9178;SDS011;71287;48.414;11.478;2023-11-22T03:00:18;1.50;;;1.40;;
9178;SDS011;71287;48.414;11.478;2023-11-22T03:02:45;1.47;;;1.37;;
9178;SDS011;71287;48.414;11.478;2023-11-22T03:05:12;1.50;;;1.40;;
9178;SDS011;71287;48.414;11.478;2023-11-22T03:07:40;1.40;;;1.30;;
9178;SDS011;71287;48.414;11.478;2023-11-22T03:10:07;1.50;;;1.40;;
9178;SDS011;71287;48.414;11.478;2023-11-22T03:12:40;1.13;;;1.07;;
9178;SDS011;71287;48.414;11.478;2023-11-22T03:15:09;1.33;;;1.23;;
9178;SDS011;71287;48.414;11.478;2023-11-22T03:17:36;1.20;;;1.10;;
9178;SDS011;71287;48.414;11.478;2023-11-22T03:20:04;1.10;;;1.10;;
9178;SDS011;71287;48.414;11.478;2023-11-22T03:22:34;1.73;;;1.63;;
9178;SDS011;71287;48.414;11.478;2023-11-22T03:25:01;1.10;;;1.00;;
9178;SDS011;71287;48.414;11.478;2023-11-22T03:27:28;1.30;;;1.20;;
9178;SDS011;71287;48.414;11.478;2023-11-22T03:29:55;1.67;;;1.57;;
9178;SDS011;71287;48.414;11.478;2023-11-22T03:32:23;1.33;;;1.23;;
9178;SDS011;71287;48.414;11.478;2023-11-22T03:34:50;2.77;;;1.40;;
9178;SDS011;71287;48.414;11.478;2023-11-22T03:37:17;1.80;;;1.70;;
9178;SDS011;71287;48.414;11.478;2023-11-22T03:39:44;1.47;;;1.20;;
9178;SDS011;71287;48.414;11.478;2023-11-22T03:42:13;1.40;;;1.30;;
9178;SDS011;71287;48.414;11.478;2023-11-22T03:44:41;1.67;;;1.57;;
9178;SDS011;71287;48.414;11.478;2023-11-22T03:47:09;1.50;;;1.40;;
9178;SDS011;71287;48.414;11.478;2023-11-22T03:49:38;1.93;;;1.50;;
9178;SDS011;71287;48.414;11.478;2023-11-22T03:52:04;1.80;;;1.70;;
9178;SDS011;71287;48.414;11.478;2023-11-22T03:54:33;1.77;;;1.67;;
9178;SDS011;71287;48.414;11.478;2023-11-22T03:57:00;2.57;;;1.83;;
9178;SDS011;71287;48.414;11.478;2023-11-22T03:59:26;2.93;;;1.77;;
9178;SDS011;71287;48.414;11.478;2023-11-22T04:01:53;2.00;;;1.80;;
9178;SDS011;71287;48.414;11.478;2023-11-22T04:04:20;3.80;;;1.80;;
9178;SDS011;71287;48.414;11.478;2023-11-22T04:06:48;2.10;;;2.00;;
9178;SDS011;71287;48.414;11.478;2023-11-22T04:09:17;1.80;;;1.70;;
9178;SDS011;71287;48.414;11.478;2023-11-22T04:11:45;1.90;;;1.80;;
9178;SDS011;71287;48.414;11.478;2023-11-22T04:14:12;1.97;;;1.87;;
9178;SDS011;71287;48.414;11.478;2023-11-22T04:16:38;2.10;;;1.80;;
9178;SDS011;71287;48.414;11.478;2023-11-22T04:19:05;2.00;;;1.87;;
9178;SDS011;71287;48.414;11.478;2023-11-22T04:21:32;2.17;;;1.97;;
9178;SDS011;71287;48.414;11.478;2023-11-22T04:24:00;1.60;;;1.50;;
9178;SDS011;71287;48.414;11.478;2023-11-22T04:26:27;2.20;;;2.00;;
9178;SDS011;71287;48.414;11.478;2023-11-22T04:28:54;2.20;;;2.00;;
9178;SDS011;71287;48.414;11.478;2023-11-22T04:31:20;2.00;;;1.90;;
9178;SDS011;71287;48.414;11.478;2023-11-22T04:33:47;1.90;;;1.80;;
9178;SDS011;71287;48.414;11.478;2023-11-22T04:36:15;2.13;;;1.93;;
9178;SDS011;71287;48.414;11.478;2023-11-22T04:38:41;2.30;;;1.60;;
9178;SDS011;71287;48.414;11.478;2023-11-22T04:41:10;2.67;;;2.03;;
9178;SDS011;71287;48.414;11.478;2023-11-22T04:43:36;2.20;;;2.00;;
9178;SDS011;71287;48.414;11.478;2023-11-22T04:46:03;2.93;;;2.10;;
9178;SDS011;71287;48.414;11.478;2023-11-22T04:48:30;1.90;;;1.80;;
9178;SDS011;71287;48.414;11.478;2023-11-22T04:50:57;2.07;;;1.87;;
9178;SDS011;71287;48.414;11.478;2023-11-22T04:53:24;2.73;;;1.70;;
9178;SDS011;71287;48.414;11.478;2023-11-22T04:55:52;1.57;;;1.47;;
9178;SDS011;71287;48.414;11.478;2023-11-22T04:58:20;1.70;;;1.60;;
9178;SDS011;71287;48.414;11.478;2023-11-22T05:00:47;1.77;;;1.67;;
9178;SDS011;71287;48.414;11.478;2023-11-22T05:03:14;1.93;;;1.60;;
9178;SDS011;71287;48.414;11.478;2023-11-22T05:05:41;1.40;;;1.30;;
9178;SDS011;71287;48.414;11.478;2023-11-22T05:08:08;1.30;;;1.20;;
9178;SDS011;71287;48.414;11.478;2023-11-22T05:10:35;1.23;;;1.13;;
9178;SDS011;71287;48.414;11.478;2023-11-22T05:13:01;1.30;;;1.20;;
9178;SDS011;71287;48.414;11.478;2023-11-22T05:15:30;1.30;;;1.20;;
9178;SDS011;71287;48.414;11.478;2023-11-22T05:17:57;1.33;;;1.23;;
9178;SDS011;71287;48.414;11.478;2023-11-22T05:20:24;1.20;;;1.10;;
9178;SDS011;71287;48.414;11.478;2023-11-22T05:22:50;1.40;;;1.30;;
9178;SDS011;71287;48.414;11.478;2023-11-22T05:25:17;1.50;;;1.40;;
9178;SDS011;71287;48.414;11.478;2023-11-22T05:27:44;0.93;;;0.93;;
9178;SDS011;71287;48.414;11.478;2023-11-22T05:30:11;1.17;;;1.10;;
9178;SDS011;71287;48.414;11.478;2023-11-22T05:32:41;1.77;;;1.20;;
9178;SDS011;71287;48.414;11.478;2023-11-22T05:35:08;1.20;;;1.10;;
9178;SDS011;71287;48.414;11.478;2023-11-22T05:37:35;1.53;;;1.43;;
9178;SDS011;71287;48.414;11.478;2023-11-22T05:40:03;1.63;;;1.50;;
9178;SDS011;71287;48.414;11.478;2023-11-22T05:42:30;1.20;;;1.13;;
9178;SDS011;71287;48.414;11.478;2023-11-22T05:44:57;1.73;;;1.10;;
9178;SDS011;71287;48.414;11.478;2023-11-22T05:47:24;1.37;;;1.27;;
9178;SDS011;71287;48.414;11.478;2023-11-22T05:49:52;1.20;;;1.10;;
9178;SDS011;71287;48.414;11.478;2023-11-22T05:52:19;1.30;;;1.20;;
9178;SDS011;71287;48.414;11.478;2023-11-22T05:54:48;2.73;;;1.40;;
9178;SDS011;71287;48.414;11.478;2023-11-22T05:57:15;1.33;;;1.20;;
9178;SDS011;71287;48.414;11.478;2023-11-22T05:59:43;1.37;;;1.10;;
9178;SDS011;71287;48.414;11.478;2023-11-22T06:02:09;1.90;;;1.53;;
9178;SDS011;71287;48.414;11.478;2023-11-22T06:04:37;1.60;;;1.50;;
9178;SDS011;71287;48.414;11.478;2023-11-22T06:07:06;1.50;;;1.40;;
9178;SDS011;71287;48.414;11.478;2023-11-22T06:09:33;1.73;;;1.63;;
9178;SDS011;71287;48.414;11.478;2023-11-22T06:12:01;1.47;;;1.37;;
9178;SDS011;71287;48.414;11.478;2023-11-22T06:14:27;1.17;;;1.10;;
9178;SDS011;71287;48.414;11.478;2023-11-22T06:16:54;1.30;;;1.20;;
9178;SDS011;71287;48.414;11.478;2023-11-22T06:19:20;1.87;;;1.50;;
9178;SDS011;71287;48.414;11.478;2023-11-22T06:21:47;1.23;;;1.17;;
9178;SDS011;71287;48.414;11.478;2023-11-22T06:24:15;1.70;;;1.60;;
9178;SDS011;71287;48.414;11.478;2023-11-22T06:26:42;2.17;;;1.50;;
9178;SDS011;71287;48.414;11.478;2023-11-22T06:29:11;1.60;;;1.50;;
9178;SDS011;71287;48.414;11.478;2023-11-22T06:31:37;2.27;;;1.70;;
9178;SDS011;71287;48.414;11.478;2023-11-22T06:34:05;1.50;;;1.40;;
9178;SDS011;71287;48.414;11.478;2023-11-22T06:36:32;1.73;;;1.63;;
9178;SDS011;71287;48.414;11.478;2023-11-22T06:38:58;2.37;;;1.60;;
9178;SDS011;71287;48.414;11.478;2023-11-22T06:41:27;1.83;;;1.73;;
9178;SDS011;71287;48.414;11.478;2023-11-22T06:43:54;1.80;;;1.70;;
9178;SDS011;71287;48.414;11.478;2023-11-22T06:46:21;1.87;;;1.77;;
9178;SDS011;71287;48.414;11.478;2023-11-22T06:48:48;2.13;;;1.80;;
9178;SDS011;71287;48.414;11.478;2023-11-22T06:51:14;2.10;;;2.00;;
9178;SDS011;71287;48.414;11.478;2023-11-22T06:53:43;3.73;;;2.10;;
9178;SDS011;71287;48.414;11.478;2023-11-22T06:56:10;1.80;;;1.70;;
9178;SDS011;71287;48.414;11.478;2023-11-22T06:58:38;2.27;;;1.50;;
9178;SDS011;71287;48.414;11.478;2023-11-22T07:01:05;1.83;;;1.73;;
9178;SDS011;71287;48.414;11.478;2023-11-22T07:03:35;1.83;;;1.70;;
9178;SDS011;71287;48.414;11.478;2023-11-22T07:06:02;1.70;;;1.50;;
9178;SDS011;71287;48.414;11.478;2023-11-22T07:08:29;1.40;;;1.30;;
9178;SDS011;71287;48.414;11.478;2023-11-22T07:10:56;1.60;;;1.50;;
9178;SDS011;71287;48.414;11.478;2023-11-22T07:13:23;1.50;;;1.40;;
9178;SDS011;71287;48.414;11.478;2023-11-22T07:15:53;2.50;;;1.40;;
9178;SDS011;71287;48.414;11.478;2023-11-22T07:18:20;1.50;;;1.40;;
9178;SDS011;71287;48.414;11.478;2023-11-22T07:20:49;1.50;;;1.40;;
9178;SDS011;71287;48.414;11.478;2023-11-22T07:23:18;1.33;;;1.23;;
9178;SDS011;71287;48.414;11.478;2023-11-22T07:25:46;1.60;;;1.50;;
9178;SDS011;71287;48.414;11.478;2023-11-22T07:28:13;1.90;;;1.50;;
9178;SDS011;71287;48.414;11.478;2023-11-22T07:30:39;1.33;;;1.23;;
9178;SDS011;71287;48.414;11.478;2023-11-22T07:33:08;1.77;;;1.67;;
9178;SDS011;71287;48.414;11.478;2023-11-22T07:35:36;1.80;;;1.70;;
9178;SDS011;71287;48.414;11.478;2023-11-22T07:38:04;1.80;;;1.70;;
9178;SDS011;71287;48.414;11.478;2023-11-22T07:40:31;1.80;;;1.70;;
9178;SDS011;71287;48.414;11.478;2023-11-22T07:42:59;2.03;;;1.83;;
9178;SDS011;71287;48.414;11.478;2023-11-22T07:45:27;1.70;;;1.60;;
9178;SDS011;71287;48.414;11.478;2023-11-22T07:47:54;1.60;;;1.50;;
9178;SDS011;71287;48.414;11.478;2023-11-22T07:50:25;1.53;;;1.40;;
9178;SDS011;71287;48.414;11.478;2023-11-22T07:52:52;1.37;;;1.27;;
9178;SDS011;71287;48.414;11.478;2023-11-22T07:55:19;1.67;;;1.57;;
9178;SDS011;71287;48.414;11.478;2023-11-22T07:57:47;1.43;;;1.33;;
9178;SDS011;71287;48.414;11.478;2023-11-22T08:00:16;1.43;;;1.33;;
9178;SDS011;71287;48.414;11.478;2023-11-22T08:02:44;1.53;;;1.43;;
9178;SDS011;71287;48.414;11.478;2023-11-22T08:05:11;1.47;;;1.37;;
9178;SDS011;71287;48.414;11.478;2023-11-22T08:07:41;1.40;;;1.30;;
9178;SDS011;71287;48.414;11.478;2023-11-22T08:10:10;1.50;;;1.40;;
9178;SDS011;71287;48.414;11.478;2023-11-22T08:12:43;1.67;;;1.57;;
9178;SDS011;71287;48.414;11.478;2023-11-22T08:15:11;2.63;;;1.87;;
9178;SDS011;71287;48.414;11.478;2023-11-22T08:17:39;1.90;;;1.80;;
9178;SDS011;71287;48.414;11.478;2023-11-22T08:20:07;2.10;;;1.70;;
9178;SDS011;71287;48.414;11.478;2023-11-22T08:22:37;2.53;;;1.93;;
9178;SDS011;71287;48.414;11.478;2023-11-22T08:25:06;1.77;;;1.67;;
9178;SDS011;71287;48.414;11.478;2023-11-22T08:27:37;1.80;;;1.70;;
9178;SDS011;71287;48.414;11.478;2023-11-22T08:30:06;1.87;;;1.70;;
9178;SDS011;71287;48.414;11.478;2023-11-22T08:32:38;2.20;;;1.90;;
9178;SDS011;71287;48.414;11.478;2023-11-22T08:35:06;2.17;;;1.77;;
9178;SDS011;71287;48.414;11.478;2023-11-22T08:37:33;2.23;;;2.03;;
9178;SDS011;71287;48.414;11.478;2023-11-22T08:40:03;3.53;;;1.93;;
9178;SDS011;71287;48.414;11.478;2023-11-22T08:42:33;2.20;;;1.50;;
9178;SDS011;71287;48.414;11.478;2023-11-22T08:45:00;2.10;;;1.90;;
9178;SDS011;71287;48.414;11.478;2023-11-22T08:47:28;1.57;;;1.47;;
9178;SDS011;71287;48.414;11.478;2023-11-22T08:49:55;1.97;;;1.80;;
9178;SDS011;71287;48.414;11.478;2023-11-22T08:52:22;2.13;;;1.93;;
9178;SDS011;71287;48.414;11.478;2023-11-22T08:54:50;2.37;;;1.93;;
9178;SDS011;71287;48.414;11.478;2023-11-22T08:57:18;1.90;;;1.70;;
9178;SDS011;71287;48.414;11.478;2023-11-22T08:59:45;2.03;;;1.87;;
9178;SDS011;71287;48.414;11.478;2023-11-22T09:02:12;2.03;;;1.93;;
9178;SDS011;71287;48.414;11.478;2023-11-22T09:04:40;1.87;;;1.77;;
9178;SDS011;71287;48.414;11.478;2023-11-22T09:07:07;1.70;;;1.60;;
9178;SDS011;71287;48.414;11.478;2023-11-22T09:09:35;1.60;;;1.50;;
9178;SDS011;71287;48.414;11.478;2023-11-22T09:12:02;2.00;;;1.90;;
9178;SDS011;71287;48.414;11.478;2023-11-22T09:14:31;2.00;;;1.83;;
9178;SDS011;71287;48.414;11.478;2023-11-22T09:16:58;1.77;;;1.67;;
9178;SDS011;71287;48.414;11.478;2023-11-22T09:19:26;1.80;;;1.70;;
9178;SDS011;71287;48.414;11.478;2023-11-22T09:21:53;2.73;;;2.00;;
9178;SDS011;71287;48.414;11.478;2023-11-22T09:24:20;2.37;;;2.10;;
9178;SDS011;71287;48.414;11.478;2023-11-22T09:26:47;2.77;;;1.80;;
9178;SDS011;71287;48.414;11.478;2023-11-22T09:29:14;2.00;;;1.90;;
9178;SDS011;71287;48.414;11.478;2023-11-22T09:31:42;2.13;;;1.93;;
9178;SDS011;71287;48.414;11.478;2023-11-22T09:34:11;2.37;;;2.00;;
9178;SDS011;71287;48.414;11.478;2023-11-22T09:36:38;1.73;;;1.63;;
9178;SDS011;71287;48.414;11.478;2023-11-22T09:39:05;1.80;;;1.70;;
9178;SDS011;71287;48.414;11.478;2023-11-22T09:41:33;1.77;;;1.67;;
9178;SDS011;71287;48.414;11.478;2023-11-22T09:44:01;1.63;;;1.53;;
9178;SDS011;71287;48.414;11.478;2023-11-22T09:46:28;1.70;;;1.60;;
9178;SDS011;71287;48.414;11.478;2023-11-22T09:49:00;2.70;;;2.50;;
9178;SDS011;71287;48.414;11.478;2023-11-22T09:51:33;2.13;;;2.03;;
9178;SDS011;71287;48.414;11.478;2023-11-22T09:54:03;2.10;;;2.00;;
9178;SDS011;71287;48.414;11.478;2023-11-22T09:56:32;2.20;;;2.10;;
9178;SDS011;71287;48.414;11.478;2023-11-22T09:59:02;2.13;;;1.93;;
9178;SDS011;71287;48.414;11.478;2023-11-22T10:01:30;2.50;;;2.13;;
9178;SDS011;71287;48.414;11.478;2023-11-22T10:03:59;2.00;;;1.90;;
9178;SDS011;71287;48.414;11.478;2023-11-22T10:06:27;2.73;;;1.70;;
9178;SDS011;71287;48.414;11.478;2023-11-22T10:08:58;2.37;;;2.17;;
9178;SDS011;71287;48.414;11.478;2023-11-22T10:11:25;2.80;;;2.20;;
9178;SDS011;71287;48.414;11.478;2023-11-22T10:13:54;2.10;;;2.00;;
9178;SDS011;71287;48.414;11.478;2023-11-22T10:16:22;2.20;;;2.10;;
9178;SDS011;71287;48.414;11.478;2023-11-22T10:18:49;2.13;;;1.93;;
9178;SDS011;71287;48.414;11.478;2023-11-22T10:21:20;2.40;;;2.20;;
9178;SDS011;71287;48.414;11.478;2023-11-22T10:23:49;2.30;;;2.10;;
9178;SDS011;71287;48.414;11.478;2023-11-22T10:26:17;2.13;;;2.03;;
9178;SDS011;71287;48.414;11.478;2023-11-22T10:28:44;2.40;;;2.20;;
9178;SDS011;71287;48.414;11.478;2023-11-22T10:31:11;1.97;;;1.87;;
9178;SDS011;71287;48.414;11.478;2023-11-22T10:33:39;1.97;;;1.80;;
9178;SDS011;71287;48.414;11.478;2023-11-22T10:36:07;2.20;;;2.00;;
9178;SDS011;71287;48.414;11.478;2023-11-22T10:38:35;1.97;;;1.87;;
9178;SDS011;71287;48.414;11.478;2023-11-22T10:41:03;2.50;;;2.30;;
9178;SDS011;71287;48.414;11.478;2023-11-22T10:43:30;2.80;;;2.23;;
9178;SDS011;71287;48.414;11.478;2023-11-22T10:46:00;2.17;;;2.07;;
9178;SDS011;71287;48.414;11.478;2023-11-22T10:48:28;2.30;;;2.10;;
9178;SDS011;71287;48.414;11.478;2023-11-22T10:50:56;2.17;;;2.07;;
9178;SDS011;71287;48.414;11.478;2023-11-22T10:53:27;2.43;;;2.23;;
9178;SDS011;71287;48.414;11.478;2023-11-22T10:56:02;2.53;;;2.33;;
9178;SDS011;71287;48.414;11.478;2023-11-22T10:58:32;2.50;;;2.30;;
9178;SDS011;71287;48.414;11.478;2023-11-22T11:01:00;2.70;;;2.50;;
9178;SDS011;71287;48.414;11.478;2023-11-22T11:03:32;2.10;;;2.00;;
9178;SDS011;71287;48.414;11.478;2023-11-22T11:06:06;2.60;;;2.40;;
9178;SDS011;71287;48.414;11.478;2023-11-22T11:08:38;1.83;;;1.73;;
9178;SDS011;71287;48.414;11.478;2023-11-22T11:11:06;2.20;;;2.00;;
9178;SDS011;71287;48.414;11.478;2023-11-22T11:13:34;2.00;;;1.80;;
9178;SDS011;71287;48.414;11.478;2023-11-22T11:16:00;2.27;;;2.07;;
9178;SDS011;71287;48.414;11.478;2023-11-22T11:18:28;2.30;;;2.10;;
9178;SDS011;71287;48.414;11.478;2023-11-22T11:20:55;2.10;;;1.90;;
9178;SDS011;71287;48.414;11.478;2023-11-22T11:23:24;2.40;;;2.20;;
9178;SDS011;71287;48.414;11.478;2023-11-22T11:25:52;2.20;;;2.10;;
9178;SDS011;71287;48.414;11.478;2023-11-22T11:28:21;2.63;;;2.43;;
9178;SDS011;71287;48.414;11.478;2023-11-22T11:30:50;2.20;;;2.03;;
9178;SDS011;71287;48.414;11.478;2023-11-22T11:33:19;2.50;;;2.30;;
9178;SDS011;71287;48.414;11.478;2023-11-22T11:35:53;2.30;;;2.10;;
9178;SDS011;71287;48.414;11.478;2023-11-22T11:38:26;3.17;;;2.27;;
9178;SDS011;71287;48.414;11.478;2023-11-22T11:40:58;2.17;;;1.90;;
9178;SDS011;71287;48.414;11.478;2023-11-22T11:43:40;2.10;;;2.00;;
9178;SDS011;71287;48.414;11.478;2023-11-22T11:46:07;2.47;;;2.27;;
9178;SDS011;71287;48.414;11.478;2023-11-22T11:48:35;2.40;;;2.20;;
9178;SDS011;71287;48.414;11.478;2023-11-22T11:51:01;2.53;;;2.20;;
9178;SDS011;71287;48.414;11.478;2023-11-22T11:53:28;2.50;;;2.30;;
9178;SDS011;71287;48.414;11.478;2023-11-22T11:55:56;2.40;;;2.20;;
9178;SDS011;71287;48.414;11.478;2023-11-22T11:58:24;2.43;;;2.23;;
9178;SDS011;71287;48.414;11.478;2023-11-22T12:00:52;2.40;;;2.20;;
9178;SDS011;71287;48.414;11.478;2023-11-22T12:03:20;2.40;;;2.20;;
9178;SDS011;71287;48.414;11.478;2023-11-22T12:05:48;2.70;;;2.50;;
9178;SDS011;71287;48.414;11.478;2023-11-22T12:08:15;2.23;;;2.10;;
9178;SDS011;71287;48.414;11.478;2023-11-22T12:10:43;2.40;;;2.20;;
9178;SDS011;71287;48.414;11.478;2023-11-22T12:13:13;2.67;;;2.47;;
9178;SDS011;71287;48.414;11.478;2023-11-22T12:15:42;2.27;;;2.07;;
9178;SDS011;71287;48.414;11.478;2023-11-22T12:18:10;2.30;;;2.10;;
9178;SDS011;71287;48.414;11.478;2023-11-22T12:20:38;2.60;;;2.40;;
9178;SDS011;71287;48.414;11.478;2023-11-22T12:23:05;2.07;;;1.97;;
9178;SDS011;71287;48.414;11.478;2023-11-22T12:25:32;2.20;;;2.00;;
9178;SDS011;71287;48.414;11.478;2023-11-22T12:27:59;2.30;;;2.10;;
9178;SDS011;71287;48.414;11.478;2023-11-22T12:30:32;2.20;;;2.00;;
9178;SDS011;71287;48.414;11.478;2023-11-22T12:33:00;2.70;;;2.50;;
9178;SDS011;71287;48.414;11.478;2023-11-22T12:35:30;2.37;;;2.17;;
9178;SDS011;71287;48.414;11.478;2023-11-22T12:37:58;2.23;;;2.03;;
9178;SDS011;71287;48.414;11.478;2023-11-22T12:40:27;2.50;;;2.30;;
9178;SDS011;71287;48.414;11.478;2023-11-22T12:42:56;3.03;;;1.97;;
9178;SDS011;71287;48.414;11.478;2023-11-22T12:45:24;2.70;;;2.50;;
9178;SDS011;71287;48.414;11.478;2023-11-22T12:47:53;2.10;;;2.00;;
9178;SDS011;71287;48.414;11.478;2023-11-22T12:50:32;2.97;;;2.37;;
9178;SDS011;71287;48.414;11.478;2023-11-22T12:53:07;2.83;;;2.30;;
9178;SDS011;71287;48.414;11.478;2023-11-22T12:55:35;2.50;;;2.30;;
9178;SDS011;71287;48.414;11.478;2023-11-22T12:58:02;2.87;;;2.67;;
9178;SDS011;71287;48.414;11.478;2023-11-22T13:00:29;2.63;;;2.43;;
9178;SDS011;71287;48.414;11.478;2023-11-22T13:02:56;2.77;;;2.57;;
9178;SDS011;71287;48.414;11.478;2023-11-22T13:05:23;2.70;;;2.50;;
9178;SDS011;71287;48.414;11.478;2023-11-22T13:07:51;2.63;;;2.43;;
9178;SDS011;71287;48.414;11.478;2023-11-22T13:10:18;2.30;;;2.10;;
9178;SDS011;71287;48.414;11.478;2023-11-22T13:12:50;2.40;;;2.20;;
9178;SDS011;71287;48.414;11.478;2023-11-22T13:15:18;2.87;;;2.67;;
9178;SDS011;71287;48.414;11.478;2023-11-22T13:17:48;2.73;;;2.40;;
9178;SDS011;71287;48.414;11.478;2023-11-22T13:20:15;2.70;;;2.50;;
9178;SDS011;71287;48.414;11.478;2023-11-22T13:22:44;3.20;;;2.40;;
9178;SDS011;71287;48.414;11.478;2023-11-22T13:25:13;2.40;;;2.20;;
9178;SDS011;71287;48.414;11.478;2023-11-22T13:27:42;2.70;;;2.50;;
9178;SDS011;71287;48.414;11.478;2023-11-22T13:30:09;3.33;;;2.47;;
9178;SDS011;71287;48.414;11.478;2023-11-22T13:32:36;2.37;;;2.23;;
9178;SDS011;71287;48.414;11.478;2023-11-22T13:35:06;2.67;;;2.47;;
9178;SDS011;71287;48.414;11.478;2023-11-22T13:37:40;2.57;;;2.37;;
9178;SDS011;71287;48.414;11.478;2023-11-22T13:40:09;2.60;;;2.40;;
9178;SDS011;71287;48.414;11.478;2023-11-22T13:42:40;2.17;;;2.00;;
9178;SDS011;71287;48.414;11.478;2023-11-22T13:45:08;2.50;;;2.30;;
9178;SDS011;71287;48.414;11.478;2023-11-22T13:47:36;2.93;;;2.73;;
9178;SDS011;71287;48.414;11.478;2023-11-22T13:50:03;2.20;;;1.93;;
9178;SDS011;71287;48.414;11.478;2023-11-22T13:52:30;2.43;;;2.23;;
9178;SDS011;71287;48.414;11.478;2023-11-22T13:54:57;3.60;;;2.43;;
9178;SDS011;71287;48.414;11.478;2023-11-22T13:57:24;2.50;;;2.30;;
9178;SDS011;71287;48.414;11.478;2023-11-22T13:59:52;2.60;;;2.40;;
9178;SDS011;71287;48.414;11.478;2023-11-22T14:02:19;2.60;;;2.40;;
9178;SDS011;71287;48.414;11.478;2023-11-22T14:04:46;2.60;;;2.40;;
9178;SDS011;71287;48.414;11.478;2023-11-22T14:07:13;2.83;;;2.27;;
9178;SDS011;71287;48.414;11.478;2023-11-22T14:09:40;2.23;;;2.10;;
9178;SDS011;71287;48.414;11.478;2023-11-22T14:12:07;4.30;;;2.00;;
9178;SDS011;71287;48.414;11.478;2023-11-22T14:14:34;2.00;;;1.90;;
9178;SDS011;71287;48.414;11.478;2023-11-22T14:17:02;2.80;;;2.60;;
9178;SDS011;71287;48.414;11.478;2023-11-22T14:19:29;2.37;;;2.17;;
9178;SDS011;71287;48.414;11.478;2023-11-22T14:21:56;2.50;;;2.17;;
9178;SDS011;71287;48.414;11.478;2023-11-22T14:24:23;3.07;;;2.40;;
9178;SDS011;71287;48.414;11.478;2023-11-22T14:26:50;2.80;;;2.57;;
9178;SDS011;71287;48.414;11.478;2023-11-22T14:29:17;2.30;;;2.20;;
9178;SDS011;71287;48.414;11.478;2023-11-22T14:31:43;2.40;;;2.20;;
9178;SDS011;71287;48.414;11.478;2023-11-22T14:34:12;2.70;;;2.50;;
9178;SDS011;71287;48.414;11.478;2023-11-22T14:36:38;2.77;;;2.50;;
9178;SDS011;71287;48.414;11.478;2023-11-22T14:39:05;2.80;;;2.60;;
9178;SDS011;71287;48.414;11.478;2023-11-22T14:41:33;3.30;;;3.00;;
9178;SDS011;71287;48.414;11.478;2023-11-22T14:44:00;3.03;;;2.73;;
9178;SDS011;71287;48.414;11.478;2023-11-22T14:46:27;3.00;;;2.70;;
9178;SDS011;71287;48.414;11.478;2023-11-22T14:48:54;2.90;;;2.63;;
9178;SDS011;71287;48.414;11.478;2023-11-22T14:51:22;2.57;;;2.37;;